Terminal Aerodrome Forecast
Issued by NWS

Home | Current Version | Previous Version | Text Only | Print | Product List | Glossary Off
Versions: 1 2 3 4 5 6 7 8 9 10 11 12 13 14 15 16 17 18 19 20

000
FTUS43 KBIS 260000 AAA
TAFDIK
TAF AMD
KDIK 260037Z 2601/2624 19007KT P6SM SKC
     FM260200 25007KT P6SM SKC
     FM261400 28020G27KT P6SM FEW250
     FM261800 30026G34KT P6SM FEW080=

USA.gov is the U.S. government's official web portal to all federal, state and local government web resources and services.